createdAt,value
2023-03-01T07:04:21.352Z,68.09
2023-03-01T07:08:14.175Z,67.69
2023-03-01T07:12:09.194Z,67.51
2023-03-01T07:16:02.181Z,67.65
2023-03-01T07:19:55.611Z,67.53
2023-03-01T07:23:50.458Z,67.84
2023-03-01T07:27:43.320Z,67.36
2023-03-01T07:31:38.082Z,66.93
2023-03-01T07:35:31.031Z,67.35
2023-03-01T07:39:26.387Z,66.37
2023-03-01T07:43:19.307Z,65.95
2023-03-01T07:47:11.937Z,65.53
2023-03-01T07:51:08.278Z,65.53
2023-03-01T07:55:00.996Z,65.14
2023-03-01T07:58:54.047Z,65.75
2023-03-01T08:02:47.430Z,65.80
2023-03-01T08:06:40.258Z,66.06
2023-03-01T08:10:32.838Z,65.81
2023-03-01T08:14:25.498Z,65.38
2023-03-01T08:18:19.742Z,65.42
2023-03-01T08:22:12.594Z,65.26
2023-03-01T08:26:09.917Z,65.11
2023-03-01T08:30:02.829Z,65.22
2023-03-01T08:33:59.602Z,64.08
2023-03-01T08:37:52.216Z,63.93
2023-03-01T08:41:48.384Z,63.69
2023-03-01T08:45:41.138Z,64.68
2023-03-01T08:49:34.189Z,64.77
2023-03-01T08:53:26.946Z,65.08
2023-03-01T08:57:20.224Z,64.89
2023-03-01T09:01:17.902Z,65.09
2023-03-01T09:05:10.921Z,64.56
2023-03-01T09:09:05.853Z,63.50
2023-03-01T09:12:59.717Z,63.14
2023-03-01T09:16:52.993Z,63.64
2023-03-01T09:20:46.290Z,62.84
2023-03-01T09:24:41.093Z,62.20
2023-03-01T09:28:34.017Z,62.83
2023-03-01T09:32:36.395Z,62.04
2023-03-01T09:36:30.275Z,62.40
2023-03-01T09:40:28.152Z,61.97
2023-03-01T09:44:34.836Z,61.80
2023-03-01T09:48:31.093Z,62.13
2023-03-01T09:52:44.353Z,61.74
2023-03-01T09:57:02.603Z,61.77
2023-03-01T10:00:58.719Z,60.35
2023-03-01T10:04:57.741Z,57.83
2023-03-01T10:08:57.995Z,57.37
2023-03-01T10:12:54.578Z,57.92
2023-03-01T10:17:00.147Z,57.54
2023-03-01T10:21:09.310Z,58.12
2023-03-01T10:25:04.998Z,57.90
2023-03-01T10:29:11.134Z,57.81
2023-03-01T10:33:10.001Z,56.81
2023-03-01T10:37:16.988Z,57.15
2023-03-01T10:41:14.437Z,56.98
2023-03-01T10:45:17.325Z,56.93
2023-03-01T10:49:24.041Z,56.55
2023-03-01T10:53:28.377Z,55.42
2023-03-01T10:57:39.385Z,55.20
2023-03-01T11:01:37.137Z,54.95
2023-03-01T11:05:31.633Z,55.30
2023-03-01T11:09:28.303Z,56.14
2023-03-01T11:13:21.448Z,55.63
2023-03-01T11:17:20.874Z,54.62
2023-03-01T11:21:14.581Z,54.17
2023-03-01T11:25:17.545Z,54.75
2023-03-01T11:29:47.892Z,54.88
2023-03-01T11:38:43.329Z,55.27
2023-03-01T11:42:55.232Z,55.88
2023-03-01T11:47:09.450Z,55.53
2023-03-01T11:51:21.141Z,55.79
2023-03-01T11:55:58.176Z,55.38
2023-03-01T12:04:31.191Z,60.41
2023-03-01T12:08:51.657Z,55.18
2023-03-01T12:13:15.280Z,55.85
2023-03-01T12:17:26.432Z,54.33
2023-03-01T12:21:41.972Z,53.71
2023-03-01T12:25:46.711Z,54.28
2023-03-01T12:29:48.172Z,53.76
2023-03-01T12:34:09.649Z,54.80
2023-03-01T12:38:20.984Z,54.10
2023-03-01T12:42:25.665Z,55.82
2023-03-01T12:46:30.544Z,54.54
2023-03-01T12:50:36.666Z,53.80
2023-03-01T12:54:32.840Z,53.19
2023-03-01T12:58:43.507Z,53.87
2023-03-01T13:02:53.430Z,54.20
2023-03-01T13:07:20.909Z,53.83
2023-03-01T13:11:23.549Z,53.80
2023-03-01T13:15:25.266Z,54.68
2023-03-01T13:19:26.521Z,55.05
2023-03-01T13:23:26.022Z,55.17
2023-03-01T13:27:18.650Z,55.60
2023-03-01T13:31:31.838Z,55.68
2023-03-01T13:35:27.696Z,55.61
2023-03-01T13:39:33.755Z,56.28
2023-03-01T13:43:32.355Z,56.07
2023-03-01T13:47:25.402Z,56.78
2023-03-01T13:51:24.464Z,56.52
2023-03-01T13:55:24.805Z,56.71
2023-03-01T13:59:23.544Z,55.99
2023-03-01T14:03:19.352Z,56.67
2023-03-01T14:07:19.490Z,56.31
2023-03-01T14:11:40.546Z,57.58
2023-03-01T14:15:37.611Z,57.61
2023-03-01T14:19:34.169Z,58.13
2023-03-01T14:23:28.227Z,57.36
2023-03-01T14:27:21.389Z,58.03
2023-03-01T14:31:52.683Z,58.30
2023-03-01T14:36:13.883Z,58.02
2023-03-01T14:40:20.902Z,57.74
2023-03-01T14:44:25.683Z,57.94
2023-03-01T14:48:19.893Z,58.09
2023-03-01T14:52:40.035Z,58.41
2023-03-01T14:56:46.109Z,58.49
2023-03-01T15:00:40.071Z,58.50
2023-03-01T15:04:35.274Z,58.55
2023-03-01T15:08:34.418Z,58.48
2023-03-01T15:12:30.153Z,58.76
2023-03-01T15:16:26.013Z,59.04
2023-03-01T15:20:22.861Z,58.79
2023-03-01T15:24:28.871Z,59.21
2023-03-01T15:28:22.141Z,58.77
2023-03-01T15:32:33.159Z,59.00
2023-03-01T15:36:41.051Z,58.93
2023-03-01T15:40:34.034Z,58.92
2023-03-01T15:44:42.729Z,58.68
2023-03-01T15:48:36.268Z,58.47
2023-03-01T15:52:37.973Z,58.87
2023-03-01T15:56:31.311Z,58.99
2023-03-01T16:00:24.392Z,58.97
2023-03-01T16:04:24.418Z,59.18
2023-03-01T16:08:17.996Z,58.72
2023-03-01T16:12:18.402Z,59.63
2023-03-01T16:16:13.966Z,60.43
2023-03-01T16:20:07.253Z,60.69
2023-03-01T16:24:10.080Z,61.22
2023-03-01T16:28:06.218Z,61.47
2023-03-01T16:32:02.956Z,61.97
2023-03-01T16:35:56.097Z,62.43
2023-03-01T16:39:52.401Z,63.01
2023-03-01T16:43:45.362Z,63.25
2023-03-01T16:47:38.829Z,63.72
2023-03-01T16:51:35.927Z,64.20
2023-03-01T16:55:29.243Z,63.88
2023-03-01T16:59:22.078Z,63.89
2023-03-01T17:03:15.151Z,64.66
2023-03-01T17:07:08.823Z,64.72
2023-03-01T17:11:11.127Z,65.54
2023-03-01T17:15:05.667Z,65.73
2023-03-01T17:18:58.948Z,66.07
2023-03-01T17:22:53.954Z,66.29
2023-03-01T17:26:47.971Z,66.33
2023-03-01T17:30:45.793Z,66.70
2023-03-01T17:34:38.969Z,67.12
2023-03-01T17:38:32.932Z,67.17
2023-03-01T17:42:26.023Z,67.41
2023-03-01T17:46:19.429Z,67.38
2023-03-01T17:50:13.279Z,67.44
2023-03-01T17:54:09.892Z,67.61
2023-03-01T17:58:02.989Z,67.96
2023-03-01T18:01:56.701Z,68.24
2023-03-01T18:05:51.357Z,68.31
2023-03-01T18:09:44.469Z,68.31
2023-03-01T18:13:40.341Z,68.48
2023-03-01T18:17:34.369Z,68.61
2023-03-01T18:21:29.058Z,68.37
2023-03-01T18:25:25.254Z,68.35
2023-03-01T18:29:18.650Z,68.52
2023-03-01T18:33:14.606Z,68.81
2023-03-01T18:37:10.149Z,69.12
2023-03-01T18:41:03.473Z,69.25
2023-03-01T18:44:56.927Z,69.10
2023-03-01T18:48:53.834Z,69.41
2023-03-01T18:52:47.674Z,69.67
2023-03-01T18:56:41.052Z,69.67
2023-03-01T19:00:36.655Z,69.59
2023-03-01T19:04:30.283Z,69.76
2023-03-01T19:08:23.858Z,70.08
2023-03-01T19:12:17.935Z,70.55
2023-03-01T19:16:14.343Z,70.76
2023-03-01T19:20:09.342Z,71.13
2023-03-01T19:24:07.876Z,71.20
2023-03-01T19:28:01.746Z,71.60
2023-03-01T19:31:55.873Z,71.59
2023-03-01T19:35:50.180Z,71.67
2023-03-01T19:39:44.166Z,71.56
2023-03-01T19:43:38.538Z,72.27
2023-03-01T19:47:34.110Z,72.20
2023-03-01T19:51:29.853Z,72.45
2023-03-01T19:55:22.966Z,73.33
2023-03-01T19:59:16.492Z,74.07
2023-03-01T20:03:09.710Z,73.35
2023-03-01T20:07:04.169Z,74.77
2023-03-01T20:11:10.726Z,74.78
2023-03-01T20:15:04.884Z,74.60
2023-03-01T20:19:01.280Z,74.05
2023-03-01T20:22:54.961Z,74.88
2023-03-01T20:26:48.697Z,73.83
2023-03-01T20:30:44.153Z,74.74
2023-03-01T20:34:37.780Z,74.58
2023-03-01T20:38:31.567Z,74.32
2023-03-01T20:42:24.939Z,73.96
2023-03-01T20:46:19.503Z,73.89
2023-03-01T20:50:13.316Z,74.17
2023-03-01T20:54:07.100Z,74.45
2023-03-01T20:58:00.151Z,74.83
2023-03-01T21:01:53.709Z,75.25
2023-03-01T21:05:47.667Z,75.01
2023-03-01T21:09:42.322Z,74.69
2023-03-01T21:13:36.068Z,75.25
2023-03-01T21:17:29.182Z,76.30
2023-03-01T21:21:25.696Z,76.34
2023-03-01T21:25:18.597Z,76.24
2023-03-01T21:29:11.286Z,75.75
2023-03-01T21:33:05.077Z,75.97
2023-03-01T21:36:57.873Z,76.15
2023-03-01T21:40:50.742Z,75.92
2023-03-01T21:44:43.794Z,75.65
2023-03-01T21:48:36.739Z,75.68
2023-03-01T21:52:29.710Z,76.30
2023-03-01T21:56:27.731Z,77.02
2023-03-01T23:09:04.706Z,78.85
2023-03-01T23:26:15.604Z,77.75
2023-03-01T23:30:09.123Z,77.82
2023-03-01T23:34:02.616Z,77.02
2023-03-01T23:42:09.444Z,77.57
2023-03-01T23:46:02.362Z,76.52
